Big Bear Station Historical Data
Daily Summary for December 3, 2017 Units:  English    Metric   Both
« Previous Day
Next Day »
Daily Weekly Monthly Yearly Custom
  High: Low: Average:
Temperature: 54.5 °F 27.5 °F 43.2 °F
Dew Point: 28.7 °F 4.4 °F 20.3 °F
Humidity: 60 % 16 % 41 %
Wind Speed: 8.3 mph 0.0 mph 1.8 mph
Wind Gust: -999.0 mph - -
Wind:- - WSW
Pressure: 30.19 in 30.09 in -
Precipitation: 0.00 in    
Historical Graphs
 
 
Tabular Data for December 3, 2017
Time Temperature Dew Point Pressure Wind Wind Speed Wind Gust Humidity Rainfall Rate (Hourly)
00:23 42.6 °F 28.4 °F 30.19 in SE 2.7 mph -999.0 mph 57 % 0 in
00:38 43.0 °F 28.4 °F 30.19 in SSE 2.2 mph -999.0 mph 56 % 0 in
00:53 44.1 °F 27.6 °F 30.18 in SW 2.7 mph -999.0 mph 52 % 0 in
01:08 45.0 °F 27.9 °F 30.18 in South 2.2 mph -999.0 mph 51 % 0 in
01:23 44.4 °F 28.3 °F 30.18 in Calm   -999.0 mph 53 % 0 in
01:54 44.1 °F 26.6 °F 30.18 in WSW 1.1 mph -999.0 mph 50 % 0 in
02:09 44.4 °F 24.9 °F 30.18 in ESE 1.1 mph -999.0 mph 46 % 0 in
02:24 44.1 °F 24.6 °F 30.17 in West 1.1 mph -999.0 mph 46 % 0 in
02:39 43.3 °F 24.9 °F 30.17 in Calm   -999.0 mph 48 % 0 in
02:55 43.5 °F 24.1 °F 30.17 in East 1.7 mph -999.0 mph 46 % 0 in
03:10 43.3 °F 22.8 °F 30.16 in Calm   -999.0 mph 44 % 0 in
03:25 43.2 °F 23.3 °F 30.16 in SSW 2.7 mph -999.0 mph 45 % 0 in
03:41 43.0 °F 24.1 °F 30.16 in NW 1.7 mph -999.0 mph 47 % 0 in
03:56 43.3 °F 24.4 °F 30.16 in West 2.2 mph -999.0 mph 47 % 0 in
04:11 43.0 °F 24.6 °F 30.15 in West 1.7 mph -999.0 mph 48 % 0 in
04:26 43.3 °F 25.4 °F 30.15 in NW 3.2 mph -999.0 mph 49 % 0 in
04:42 43.5 °F 26.1 °F 30.15 in NNW 4.2 mph -999.0 mph 50 % 0 in
04:57 44.2 °F 26.7 °F 30.15 in NNW 4.7 mph -999.0 mph 50 % 0 in
05:12 44.4 °F 27.4 °F 30.15 in SSW 2.7 mph -999.0 mph 51 % 0 in
05:27 43.9 °F 26.9 °F 30.15 in Calm   -999.0 mph 51 % 0 in
05:43 43.5 °F 26.6 °F 30.15 in Calm   -999.0 mph 51 % 0 in
05:58 43.2 °F 26.3 °F 30.15 in Calm   -999.0 mph 51 % 0 in
06:13 42.6 °F 25.7 °F 30.15 in Calm   -999.0 mph 51 % 0 in
06:28 42.3 °F 25.0 °F 30.16 in Calm   -999.0 mph 50 % 0 in
06:43 42.1 °F 24.8 °F 30.17 in Calm   -999.0 mph 50 % 0 in
06:59 41.9 °F 24.6 °F 30.17 in Calm   -999.0 mph 50 % 0 in
07:14 42.1 °F 23.8 °F 30.18 in NW 1.7 mph -999.0 mph 48 % 0 in
07:29 41.9 °F 23.1 °F 30.18 in West 2.7 mph -999.0 mph 47 % 0 in
07:44 42.3 °F 22.5 °F 30.18 in WNW 2.7 mph -999.0 mph 45 % 0 in
08:00 42.6 °F 21.1 °F 30.18 in NW 2.2 mph -999.0 mph 42 % 0 in
08:15 43.7 °F 18.5 °F 30.18 in Calm   -999.0 mph 36 % 0 in
08:30 44.8 °F 17.4 °F 30.18 in Calm   -999.0 mph 33 % 0 in
08:45 44.8 °F 18.1 °F 30.18 in Calm   -999.0 mph 34 % 0 in
09:01 46.0 °F 16.3 °F 30.18 in NW 5.3 mph -999.0 mph 30 % 0 in
09:16 47.8 °F 17.1 °F 30.18 in SW 1.1 mph -999.0 mph 29 % 0 in
09:31 48.7 °F 20.1 °F 30.18 in West 4.2 mph -999.0 mph 32 % 0 in
09:46 49.3 °F 20.7 °F 30.18 in NW 2.7 mph -999.0 mph 32 % 0 in
10:01 49.6 °F 22.4 °F 30.18 in NNW 3.7 mph -999.0 mph 34 % 0 in
10:17 50.2 °F 22.2 °F 30.18 in South 1.7 mph -999.0 mph 33 % 0 in
10:32 50.9 °F 22.1 °F 30.17 in WNW 5.3 mph -999.0 mph 32 % 0 in
10:47 52.2 °F 23.2 °F 30.16 in WNW 8.3 mph -999.0 mph 32 % 0 in
11:02 52.2 °F 22.5 °F 30.16 in SE 4.2 mph -999.0 mph 31 % 0 in
11:17 52.3 °F 20.1 °F 30.16 in NW 3.2 mph -999.0 mph 28 % 0 in
11:33 52.2 °F 17.4 °F 30.15 in WSW 1.1 mph -999.0 mph 25 % 0 in
11:48 52.9 °F 12.9 °F 30.14 in NNW 4.7 mph -999.0 mph 20 % 0 in
12:03 53.2 °F 9.5 °F 30.14 in NW 4.7 mph -999.0 mph 17 % 0 in
12:18 54.5 °F 9.2 °F 30.13 in NNE 3.7 mph -999.0 mph 16 % 0 in
12:33 53.8 °F 12.5 °F 30.12 in NNW 4.7 mph -999.0 mph 19 % 0 in
12:49 54.3 °F 14.0 °F 30.12 in SW 3.7 mph -999.0 mph 20 % 0 in
13:04 53.6 °F 15.6 °F 30.12 in NW 5.8 mph -999.0 mph 22 % 0 in
13:19 52.9 °F 18.9 °F 30.12 in NNW 3.7 mph -999.0 mph 26 % 0 in
13:35 52.0 °F 15.3 °F 30.11 in NNE 1.1 mph -999.0 mph 23 % 0 in
13:50 52.0 °F 17.2 °F 30.11 in NW 3.2 mph -999.0 mph 25 % 0 in
14:06 51.1 °F 19.9 °F 30.11 in NW 3.7 mph -999.0 mph 29 % 0 in
14:21 50.5 °F 20.2 °F 30.11 in NW 1.7 mph -999.0 mph 30 % 0 in
14:36 50.0 °F 22.0 °F 30.11 in NW 2.2 mph -999.0 mph 33 % 0 in
14:51 49.3 °F 21.4 °F 30.11 in NW 2.7 mph -999.0 mph 33 % 0 in
15:07 48.6 °F 24.1 °F 30.11 in WNW 2.7 mph -999.0 mph 38 % 0 in
15:22 47.8 °F 24.0 °F 30.11 in West 1.7 mph -999.0 mph 39 % 0 in
15:37 47.3 °F 27.0 °F 30.10 in NW 4.7 mph -999.0 mph 45 % 0 in
15:52 46.2 °F 27.6 °F 30.10 in West 2.7 mph -999.0 mph 48 % 0 in
16:08 45.3 °F 28.7 °F 30.10 in Calm   -999.0 mph 52 % 0 in
16:23 44.4 °F 27.4 °F 30.09 in SW 1.1 mph -999.0 mph 51 % 0 in
16:38 43.9 °F 26.9 °F 30.09 in ESE 3.2 mph -999.0 mph 51 % 0 in
16:53 43.2 °F 25.3 °F 30.09 in WNW 2.2 mph -999.0 mph 49 % 0 in
17:09 42.3 °F 24.0 °F 30.09 in Calm   -999.0 mph 48 % 0 in
17:24 41.5 °F 23.3 °F 30.09 in Calm   -999.0 mph 48 % 0 in
17:39 41.0 °F 22.8 °F 30.09 in Calm   -999.0 mph 48 % 0 in
17:54 40.5 °F 21.3 °F 30.09 in Calm   -999.0 mph 46 % 0 in
18:09 40.8 °F 14.6 °F 30.09 in West 1.1 mph -999.0 mph 34 % 0 in
18:25 42.8 °F 4.4 °F 30.09 in NNW 4.7 mph -999.0 mph 20 % 0 in
18:40 43.7 °F 5.2 °F 30.09 in NW 2.2 mph -999.0 mph 20 % 0 in
18:55 42.8 °F 18.3 °F 30.09 in Calm   -999.0 mph 37 % 0 in
19:11 41.0 °F 20.7 °F 30.10 in Calm   -999.0 mph 44 % 0 in
19:26 40.8 °F 16.5 °F 30.10 in SSE 1.1 mph -999.0 mph 37 % 0 in
19:41 40.1 °F 15.3 °F 30.10 in Calm   -999.0 mph 36 % 0 in
19:56 39.4 °F 14.6 °F 30.11 in SSE 2.2 mph -999.0 mph 36 % 0 in
20:11 37.4 °F 16.9 °F 30.11 in SSE 2.2 mph -999.0 mph 43 % 0 in
20:27 36.0 °F 15.1 °F 30.12 in Calm   -999.0 mph 42 % 0 in
20:42 34.5 °F 14.3 °F 30.11 in Calm   -999.0 mph 43 % 0 in
20:57 33.4 °F 18.5 °F 30.12 in Calm   -999.0 mph 54 % 0 in
21:12 32.4 °F 15.4 °F 30.12 in Calm   -999.0 mph 49 % 0 in
21:27 31.6 °F 11.6 °F 30.12 in Calm   -999.0 mph 43 % 0 in
21:43 30.9 °F 13.0 °F 30.12 in Calm   -999.0 mph 47 % 0 in
21:58 30.6 °F 13.7 °F 30.12 in Calm   -999.0 mph 49 % 0 in
22:13 29.7 °F 13.3 °F 30.12 in Calm   -999.0 mph 50 % 0 in
22:28 29.7 °F 11.9 °F 30.12 in Calm   -999.0 mph 47 % 0 in
22:43 28.9 °F 10.2 °F 30.12 in Calm   -999.0 mph 45 % 0 in
22:59 28.9 °F 12.1 °F 30.12 in Calm   -999.0 mph 49 % 0 in
23:14 28.0 °F 14.3 °F 30.12 in SSE 2.2 mph -999.0 mph 56 % 0 in
23:29 28.0 °F 14.7 °F 30.12 in Calm   -999.0 mph 57 % 0 in
23:44 27.9 °F 15.4 °F 30.12 in Calm   -999.0 mph 59 % 0 in
23:59 27.5 °F 15.4 °F 30.12 in Calm   -999.0 mph 60 % 0 in
Big Bear CA Weather
Compliments of Weather Underground - 1.5 mb